sensor_id;sensor_type;location;lat;lon;timestamp;P1;durP1;ratioP1;P2;durP2;ratioP2
55601;SDS011;59921;51.332;12.410;2023-02-15T00:01:23;7.45;;;6.47;;
55601;SDS011;59921;51.332;12.410;2023-02-15T00:03:48;7.78;;;6.50;;
55601;SDS011;59921;51.332;12.410;2023-02-15T00:06:14;7.53;;;5.90;;
55601;SDS011;59921;51.332;12.410;2023-02-15T00:08:40;7.93;;;6.15;;
55601;SDS011;59921;51.332;12.410;2023-02-15T00:11:07;7.50;;;6.00;;
55601;SDS011;59921;51.332;12.410;2023-02-15T00:13:33;7.43;;;6.25;;
55601;SDS011;59921;51.332;12.410;2023-02-15T00:16:04;7.60;;;6.20;;
55601;SDS011;59921;51.332;12.410;2023-02-15T00:18:31;7.05;;;6.10;;
55601;SDS011;59921;51.332;12.410;2023-02-15T00:20:56;7.97;;;6.13;;
55601;SDS011;59921;51.332;12.410;2023-02-15T00:23:22;6.95;;;5.85;;
55601;SDS011;59921;51.332;12.410;2023-02-15T00:25:48;7.30;;;6.03;;
55601;SDS011;59921;51.332;12.410;2023-02-15T00:28:13;7.40;;;5.93;;
55601;SDS011;59921;51.332;12.410;2023-02-15T00:30:39;7.70;;;6.43;;
55601;SDS011;59921;51.332;12.410;2023-02-15T00:33:05;7.03;;;5.82;;
55601;SDS011;59921;51.332;12.410;2023-02-15T00:35:30;7.80;;;6.22;;
55601;SDS011;59921;51.332;12.410;2023-02-15T00:37:56;8.10;;;6.47;;
55601;SDS011;59921;51.332;12.410;2023-02-15T00:40:22;7.80;;;6.57;;
55601;SDS011;59921;51.332;12.410;2023-02-15T00:42:47;7.68;;;6.10;;
55601;SDS011;59921;51.332;12.410;2023-02-15T00:45:13;7.55;;;6.20;;
55601;SDS011;59921;51.332;12.410;2023-02-15T00:47:38;7.47;;;6.22;;
55601;SDS011;59921;51.332;12.410;2023-02-15T00:50:04;7.13;;;5.95;;
55601;SDS011;59921;51.332;12.410;2023-02-15T00:52:30;7.15;;;6.05;;
55601;SDS011;59921;51.332;12.410;2023-02-15T00:54:56;8.50;;;6.75;;
55601;SDS011;59921;51.332;12.410;2023-02-15T00:57:21;6.97;;;5.90;;
55601;SDS011;59921;51.332;12.410;2023-02-15T00:59:47;7.32;;;6.10;;
55601;SDS011;59921;51.332;12.410;2023-02-15T01:02:12;7.35;;;6.20;;
55601;SDS011;59921;51.332;12.410;2023-02-15T01:04:38;7.32;;;6.03;;
55601;SDS011;59921;51.332;12.410;2023-02-15T01:07:04;7.88;;;6.38;;
55601;SDS011;59921;51.332;12.410;2023-02-15T01:09:29;7.07;;;6.07;;
55601;SDS011;59921;51.332;12.410;2023-02-15T01:11:55;7.50;;;5.82;;
55601;SDS011;59921;51.332;12.410;2023-02-15T01:14:20;8.20;;;5.90;;
55601;SDS011;59921;51.332;12.410;2023-02-15T01:16:46;8.02;;;6.25;;
55601;SDS011;59921;51.332;12.410;2023-02-15T01:19:11;7.20;;;5.72;;
55601;SDS011;59921;51.332;12.410;2023-02-15T01:21:37;7.28;;;5.80;;
55601;SDS011;59921;51.332;12.410;2023-02-15T01:24:02;6.88;;;5.78;;
55601;SDS011;59921;51.332;12.410;2023-02-15T01:26:28;7.40;;;6.28;;
55601;SDS011;59921;51.332;12.410;2023-02-15T01:28:54;8.10;;;6.25;;
55601;SDS011;59921;51.332;12.410;2023-02-15T01:31:20;7.40;;;6.28;;
55601;SDS011;59921;51.332;12.410;2023-02-15T01:33:46;7.15;;;5.80;;
55601;SDS011;59921;51.332;12.410;2023-02-15T01:36:13;7.15;;;6.30;;
55601;SDS011;59921;51.332;12.410;2023-02-15T01:38:39;8.27;;;6.38;;
55601;SDS011;59921;51.332;12.410;2023-02-15T01:41:05;7.43;;;6.07;;
55601;SDS011;59921;51.332;12.410;2023-02-15T01:43:58;7.45;;;6.03;;
55601;SDS011;59921;51.332;12.410;2023-02-15T01:46:47;7.60;;;6.30;;
55601;SDS011;59921;51.332;12.410;2023-02-15T01:49:16;7.10;;;6.28;;
55601;SDS011;59921;51.332;12.410;2023-02-15T01:51:45;7.53;;;5.90;;
55601;SDS011;59921;51.332;12.410;2023-02-15T01:56:54;7.57;;;6.05;;
55601;SDS011;59921;51.332;12.410;2023-02-15T01:59:26;6.88;;;6.07;;
55601;SDS011;59921;51.332;12.410;2023-02-15T02:01:52;6.95;;;6.07;;
55601;SDS011;59921;51.332;12.410;2023-02-15T02:06:50;7.50;;;5.95;;
55601;SDS011;59921;51.332;12.410;2023-02-15T02:09:17;6.93;;;5.78;;
55601;SDS011;59921;51.332;12.410;2023-02-15T02:11:42;7.40;;;5.90;;
55601;SDS011;59921;51.332;12.410;2023-02-15T02:14:11;6.70;;;5.47;;
55601;SDS011;59921;51.332;12.410;2023-02-15T02:16:53;7.82;;;6.43;;
55601;SDS011;59921;51.332;12.410;2023-02-15T02:37:23;6.32;;;5.60;;
55601;SDS011;59921;51.332;12.410;2023-02-15T02:43:04;6.10;;;5.38;;
55601;SDS011;59921;51.332;12.410;2023-02-15T02:45:40;7.90;;;6.32;;
55601;SDS011;59921;51.332;12.410;2023-02-15T02:48:18;7.40;;;5.88;;
55601;SDS011;59921;51.332;12.410;2023-02-15T02:50:46;6.90;;;5.88;;
55601;SDS011;59921;51.332;12.410;2023-02-15T02:53:12;7.05;;;5.60;;
55601;SDS011;59921;51.332;12.410;2023-02-15T02:58:11;6.97;;;5.47;;
55601;SDS011;59921;51.332;12.410;2023-02-15T03:00:55;7.50;;;5.93;;
55601;SDS011;59921;51.332;12.410;2023-02-15T03:05:54;6.80;;;5.70;;
55601;SDS011;59921;51.332;12.410;2023-02-15T03:08:25;6.90;;;5.53;;
55601;SDS011;59921;51.332;12.410;2023-02-15T03:10:59;7.38;;;6.20;;
55601;SDS011;59921;51.332;12.410;2023-02-15T03:13:25;7.22;;;5.70;;
55601;SDS011;59921;51.332;12.410;2023-02-15T03:15:52;7.68;;;6.22;;
55601;SDS011;59921;51.332;12.410;2023-02-15T03:18:37;7.00;;;6.10;;
55601;SDS011;59921;51.332;12.410;2023-02-15T03:21:07;6.57;;;5.45;;
55601;SDS011;59921;51.332;12.410;2023-02-15T03:23:34;7.18;;;5.68;;
55601;SDS011;59921;51.332;12.410;2023-02-15T03:26:03;7.40;;;6.00;;
55601;SDS011;59921;51.332;12.410;2023-02-15T03:28:41;7.22;;;5.88;;
55601;SDS011;59921;51.332;12.410;2023-02-15T03:31:09;7.40;;;6.00;;
55601;SDS011;59921;51.332;12.410;2023-02-15T03:33:40;7.15;;;5.75;;
55601;SDS011;59921;51.332;12.410;2023-02-15T03:38:47;7.35;;;5.63;;
55601;SDS011;59921;51.332;12.410;2023-02-15T03:41:46;7.82;;;6.13;;
55601;SDS011;59921;51.332;12.410;2023-02-15T03:44:30;6.93;;;5.88;;
55601;SDS011;59921;51.332;12.410;2023-02-15T03:47:06;7.43;;;5.97;;
55601;SDS011;59921;51.332;12.410;2023-02-15T03:49:44;6.85;;;5.80;;
55601;SDS011;59921;51.332;12.410;2023-02-15T03:52:20;6.72;;;5.75;;
55601;SDS011;59921;51.332;12.410;2023-02-15T03:54:46;6.60;;;5.70;;
55601;SDS011;59921;51.332;12.410;2023-02-15T04:00:08;6.90;;;5.57;;
55601;SDS011;59921;51.332;12.410;2023-02-15T04:05:25;7.20;;;5.80;;
55601;SDS011;59921;51.332;12.410;2023-02-15T04:07:50;6.93;;;5.75;;
55601;SDS011;59921;51.332;12.410;2023-02-15T04:10:16;6.95;;;5.55;;
55601;SDS011;59921;51.332;12.410;2023-02-15T04:13:00;7.15;;;5.60;;
55601;SDS011;59921;51.332;12.410;2023-02-15T04:15:25;6.85;;;5.85;;
55601;SDS011;59921;51.332;12.410;2023-02-15T04:18:09;6.97;;;5.72;;
55601;SDS011;59921;51.332;12.410;2023-02-15T04:20:34;6.88;;;5.85;;
55601;SDS011;59921;51.332;12.410;2023-02-15T04:23:18;6.80;;;5.40;;
55601;SDS011;59921;51.332;12.410;2023-02-15T04:26:03;6.60;;;5.60;;
55601;SDS011;59921;51.332;12.410;2023-02-15T04:28:29;7.53;;;6.20;;
55601;SDS011;59921;51.332;12.410;2023-02-15T04:30:55;6.80;;;5.55;;
55601;SDS011;59921;51.332;12.410;2023-02-15T04:33:21;6.90;;;5.63;;
55601;SDS011;59921;51.332;12.410;2023-02-15T04:35:46;7.20;;;5.60;;
55601;SDS011;59921;51.332;12.410;2023-02-15T04:38:12;6.60;;;5.53;;
55601;SDS011;59921;51.332;12.410;2023-02-15T04:40:37;6.90;;;5.50;;
55601;SDS011;59921;51.332;12.410;2023-02-15T04:43:03;6.53;;;5.53;;
55601;SDS011;59921;51.332;12.410;2023-02-15T04:45:28;7.28;;;5.97;;
55601;SDS011;59921;51.332;12.410;2023-02-15T04:47:54;7.63;;;6.28;;
55601;SDS011;59921;51.332;12.410;2023-02-15T04:50:19;6.45;;;5.18;;
55601;SDS011;59921;51.332;12.410;2023-02-15T04:52:46;6.93;;;5.53;;
55601;SDS011;59921;51.332;12.410;2023-02-15T04:55:11;7.05;;;5.70;;
55601;SDS011;59921;51.332;12.410;2023-02-15T04:57:37;6.97;;;5.47;;
55601;SDS011;59921;51.332;12.410;2023-02-15T05:00:03;6.30;;;5.28;;
55601;SDS011;59921;51.332;12.410;2023-02-15T05:02:28;6.35;;;5.18;;
55601;SDS011;59921;51.332;12.410;2023-02-15T05:04:54;6.95;;;5.45;;
55601;SDS011;59921;51.332;12.410;2023-02-15T05:07:19;6.72;;;5.47;;
55601;SDS011;59921;51.332;12.410;2023-02-15T05:09:45;6.32;;;5.18;;
55601;SDS011;59921;51.332;12.410;2023-02-15T05:12:10;6.38;;;5.30;;
55601;SDS011;59921;51.332;12.410;2023-02-15T05:14:36;6.20;;;4.90;;
55601;SDS011;59921;51.332;12.410;2023-02-15T05:17:02;6.40;;;5.15;;
55601;SDS011;59921;51.332;12.410;2023-02-15T05:19:28;6.60;;;5.28;;
55601;SDS011;59921;51.332;12.410;2023-02-15T05:21:54;6.05;;;5.22;;
55601;SDS011;59921;51.332;12.410;2023-02-15T05:24:20;7.50;;;5.28;;
55601;SDS011;59921;51.332;12.410;2023-02-15T05:27:04;7.40;;;5.43;;
55601;SDS011;59921;51.332;12.410;2023-02-15T05:29:48;6.63;;;5.03;;
55601;SDS011;59921;51.332;12.410;2023-02-15T05:32:13;6.32;;;5.25;;
55601;SDS011;59921;51.332;12.410;2023-02-15T05:34:39;6.90;;;5.35;;
55601;SDS011;59921;51.332;12.410;2023-02-15T05:37:05;6.32;;;5.20;;
55601;SDS011;59921;51.332;12.410;2023-02-15T05:39:30;6.70;;;5.40;;
55601;SDS011;59921;51.332;12.410;2023-02-15T05:41:58;6.20;;;4.95;;
55601;SDS011;59921;51.332;12.410;2023-02-15T05:44:24;6.80;;;5.40;;
55601;SDS011;59921;51.332;12.410;2023-02-15T05:46:50;5.68;;;4.80;;
55601;SDS011;59921;51.332;12.410;2023-02-15T05:49:15;5.85;;;4.80;;
55601;SDS011;59921;51.332;12.410;2023-02-15T05:51:41;7.07;;;5.05;;
55601;SDS011;59921;51.332;12.410;2023-02-15T05:54:07;6.82;;;5.28;;
55601;SDS011;59921;51.332;12.410;2023-02-15T05:56:32;5.82;;;4.93;;
55601;SDS011;59921;51.332;12.410;2023-02-15T05:58:58;6.72;;;5.45;;
55601;SDS011;59921;51.332;12.410;2023-02-15T06:01:23;5.63;;;4.82;;
55601;SDS011;59921;51.332;12.410;2023-02-15T06:03:49;6.53;;;4.93;;
55601;SDS011;59921;51.332;12.410;2023-02-15T06:06:15;6.47;;;5.00;;
55601;SDS011;59921;51.332;12.410;2023-02-15T06:08:41;6.07;;;4.82;;
55601;SDS011;59921;51.332;12.410;2023-02-15T06:11:06;5.95;;;4.85;;
55601;SDS011;59921;51.332;12.410;2023-02-15T06:13:32;6.07;;;4.95;;
55601;SDS011;59921;51.332;12.410;2023-02-15T06:15:58;6.03;;;4.93;;
55601;SDS011;59921;51.332;12.410;2023-02-15T06:18:24;6.30;;;5.20;;
55601;SDS011;59921;51.332;12.410;2023-02-15T06:20:49;6.30;;;5.18;;
55601;SDS011;59921;51.332;12.410;2023-02-15T06:23:15;7.05;;;5.60;;
55601;SDS011;59921;51.332;12.410;2023-02-15T06:25:42;6.43;;;5.18;;
55601;SDS011;59921;51.332;12.410;2023-02-15T06:28:07;6.25;;;5.10;;
55601;SDS011;59921;51.332;12.410;2023-02-15T06:30:33;6.82;;;5.13;;
55601;SDS011;59921;51.332;12.410;2023-02-15T06:32:59;6.50;;;5.18;;
55601;SDS011;59921;51.332;12.410;2023-02-15T06:35:24;6.15;;;5.15;;
55601;SDS011;59921;51.332;12.410;2023-02-15T06:37:50;6.25;;;5.10;;
55601;SDS011;59921;51.332;12.410;2023-02-15T06:40:16;6.88;;;5.45;;
55601;SDS011;59921;51.332;12.410;2023-02-15T06:42:41;6.18;;;5.00;;
55601;SDS011;59921;51.332;12.410;2023-02-15T06:45:07;6.70;;;5.38;;
55601;SDS011;59921;51.332;12.410;2023-02-15T06:47:34;6.28;;;5.10;;
55601;SDS011;59921;51.332;12.410;2023-02-15T06:49:59;5.65;;;4.75;;
55601;SDS011;59921;51.332;12.410;2023-02-15T06:52:25;6.35;;;5.22;;
55601;SDS011;59921;51.332;12.410;2023-02-15T06:54:50;6.32;;;4.90;;
55601;SDS011;59921;51.332;12.410;2023-02-15T06:57:16;6.75;;;5.07;;
55601;SDS011;59921;51.332;12.410;2023-02-15T06:59:42;6.43;;;5.00;;
55601;SDS011;59921;51.332;12.410;2023-02-15T07:02:08;7.25;;;5.05;;
55601;SDS011;59921;51.332;12.410;2023-02-15T07:04:36;6.60;;;5.20;;
55601;SDS011;59921;51.332;12.410;2023-02-15T07:07:01;6.05;;;5.03;;
55601;SDS011;59921;51.332;12.410;2023-02-15T07:09:27;6.45;;;5.22;;
55601;SDS011;59921;51.332;12.410;2023-02-15T07:11:52;6.97;;;5.20;;
55601;SDS011;59921;51.332;12.410;2023-02-15T07:14:36;6.47;;;5.28;;
55601;SDS011;59921;51.332;12.410;2023-02-15T07:17:02;6.32;;;5.05;;
55601;SDS011;59921;51.332;12.410;2023-02-15T07:19:27;6.68;;;5.18;;
55601;SDS011;59921;51.332;12.410;2023-02-15T07:21:53;6.38;;;5.20;;
55601;SDS011;59921;51.332;12.410;2023-02-15T07:24:19;6.63;;;5.38;;
55601;SDS011;59921;51.332;12.410;2023-02-15T07:26:44;6.25;;;5.18;;
55601;SDS011;59921;51.332;12.410;2023-02-15T07:29:10;6.40;;;5.22;;
55601;SDS011;59921;51.332;12.410;2023-02-15T07:31:35;6.70;;;5.30;;
55601;SDS011;59921;51.332;12.410;2023-02-15T07:34:01;6.10;;;4.78;;
55601;SDS011;59921;51.332;12.410;2023-02-15T07:36:26;7.25;;;5.72;;
55601;SDS011;59921;51.332;12.410;2023-02-15T07:38:52;6.22;;;5.07;;
55601;SDS011;59921;51.332;12.410;2023-02-15T07:41:17;6.72;;;5.22;;
55601;SDS011;59921;51.332;12.410;2023-02-15T07:43:44;6.57;;;4.88;;
55601;SDS011;59921;51.332;12.410;2023-02-15T07:46:11;7.03;;;5.40;;
55601;SDS011;59921;51.332;12.410;2023-02-15T07:48:39;7.30;;;5.45;;
55601;SDS011;59921;51.332;12.410;2023-02-15T07:51:07;6.18;;;4.80;;
55601;SDS011;59921;51.332;12.410;2023-02-15T07:53:34;6.22;;;4.88;;
55601;SDS011;59921;51.332;12.410;2023-02-15T07:56:01;6.35;;;5.10;;
55601;SDS011;59921;51.332;12.410;2023-02-15T07:58:28;6.45;;;5.05;;
55601;SDS011;59921;51.332;12.410;2023-02-15T08:01:13;6.60;;;5.22;;
55601;SDS011;59921;51.332;12.410;2023-02-15T08:03:39;6.18;;;5.00;;
55601;SDS011;59921;51.332;12.410;2023-02-15T08:06:05;6.20;;;4.88;;
55601;SDS011;59921;51.332;12.410;2023-02-15T08:08:32;6.70;;;5.38;;
55601;SDS011;59921;51.332;12.410;2023-02-15T08:13:49;6.55;;;5.30;;
55601;SDS011;59921;51.332;12.410;2023-02-15T08:16:30;6.40;;;4.88;;
55601;SDS011;59921;51.332;12.410;2023-02-15T08:18:56;6.72;;;5.00;;
55601;SDS011;59921;51.332;12.410;2023-02-15T08:21:24;6.22;;;4.90;;
55601;SDS011;59921;51.332;12.410;2023-02-15T08:23:52;6.20;;;4.60;;
55601;SDS011;59921;51.332;12.410;2023-02-15T08:26:17;5.35;;;4.60;;
55601;SDS011;59921;51.332;12.410;2023-02-15T08:28:43;6.20;;;4.80;;
55601;SDS011;59921;51.332;12.410;2023-02-15T08:31:10;5.85;;;4.60;;
55601;SDS011;59921;51.332;12.410;2023-02-15T08:33:37;6.40;;;5.00;;
55601;SDS011;59921;51.332;12.410;2023-02-15T08:36:05;6.68;;;4.85;;
55601;SDS011;59921;51.332;12.410;2023-02-15T08:38:35;6.30;;;4.80;;
55601;SDS011;59921;51.332;12.410;2023-02-15T08:41:11;6.20;;;5.00;;
55601;SDS011;59921;51.332;12.410;2023-02-15T08:43:36;5.53;;;4.60;;
55601;SDS011;59921;51.332;12.410;2023-02-15T08:46:03;6.20;;;4.65;;
55601;SDS011;59921;51.332;12.410;2023-02-15T08:48:28;6.18;;;4.50;;
55601;SDS011;59921;51.332;12.410;2023-02-15T08:50:54;6.50;;;4.53;;
55601;SDS011;59921;51.332;12.410;2023-02-15T08:53:19;6.15;;;4.40;;
55601;SDS011;59921;51.332;12.410;2023-02-15T08:55:47;6.22;;;4.60;;
55601;SDS011;59921;51.332;12.410;2023-02-15T08:58:20;6.07;;;4.68;;
55601;SDS011;59921;51.332;12.410;2023-02-15T09:00:46;5.93;;;4.45;;
55601;SDS011;59921;51.332;12.410;2023-02-15T09:03:11;5.30;;;4.38;;
55601;SDS011;59921;51.332;12.410;2023-02-15T09:05:37;6.03;;;4.53;;
55601;SDS011;59921;51.332;12.410;2023-02-15T09:08:03;6.55;;;4.63;;
55601;SDS011;59921;51.332;12.410;2023-02-15T09:10:29;5.43;;;4.30;;
55601;SDS011;59921;51.332;12.410;2023-02-15T09:12:54;5.32;;;4.32;;
55601;SDS011;59921;51.332;12.410;2023-02-15T09:15:20;5.55;;;4.35;;
55601;SDS011;59921;51.332;12.410;2023-02-15T09:17:46;5.40;;;4.78;;
55601;SDS011;59921;51.332;12.410;2023-02-15T09:20:11;5.63;;;4.53;;
55601;SDS011;59921;51.332;12.410;2023-02-15T09:22:37;6.32;;;4.40;;
55601;SDS011;59921;51.332;12.410;2023-02-15T09:25:03;5.15;;;4.10;;
55601;SDS011;59921;51.332;12.410;2023-02-15T09:27:29;5.22;;;3.97;;
55601;SDS011;59921;51.332;12.410;2023-02-15T09:29:54;5.32;;;4.13;;
55601;SDS011;59921;51.332;12.410;2023-02-15T09:32:20;5.45;;;4.38;;
55601;SDS011;59921;51.332;12.410;2023-02-15T09:34:47;4.82;;;4.03;;
55601;SDS011;59921;51.332;12.410;2023-02-15T09:37:15;4.82;;;3.92;;
55601;SDS011;59921;51.332;12.410;2023-02-15T09:39:41;5.35;;;4.18;;
55601;SDS011;59921;51.332;12.410;2023-02-15T09:42:15;5.30;;;4.25;;
55601;SDS011;59921;51.332;12.410;2023-02-15T09:48:03;5.43;;;4.25;;
55601;SDS011;59921;51.332;12.410;2023-02-15T09:53:07;4.60;;;3.88;;
55601;SDS011;59921;51.332;12.410;2023-02-15T10:06:28;4.75;;;3.67;;
55601;SDS011;59921;51.332;12.410;2023-02-15T10:14:19;7.30;;;4.50;;
55601;SDS011;59921;51.332;12.410;2023-02-15T10:28:26;5.15;;;3.80;;
55601;SDS011;59921;51.332;12.410;2023-02-15T10:31:06;6.43;;;4.35;;
55601;SDS011;59921;51.332;12.410;2023-02-15T10:33:48;6.65;;;3.72;;
55601;SDS011;59921;51.332;12.410;2023-02-15T10:36:58;5.38;;;3.80;;
55601;SDS011;59921;51.332;12.410;2023-02-15T10:39:25;6.45;;;3.97;;
55601;SDS011;59921;51.332;12.410;2023-02-15T10:44:40;6.18;;;3.50;;
55601;SDS011;59921;51.332;12.410;2023-02-15T10:52:53;5.63;;;3.80;;
55601;SDS011;59921;51.332;12.410;2023-02-15T10:58:18;5.57;;;3.72;;
55601;SDS011;59921;51.332;12.410;2023-02-15T11:06:26;3.90;;;3.33;;
55601;SDS011;59921;51.332;12.410;2023-02-15T11:09:03;4.10;;;3.28;;
55601;SDS011;59921;51.332;12.410;2023-02-15T11:11:36;5.15;;;3.40;;
55601;SDS011;59921;51.332;12.410;2023-02-15T11:14:18;5.30;;;3.53;;
55601;SDS011;59921;51.332;12.410;2023-02-15T11:16:53;4.32;;;3.00;;
55601;SDS011;59921;51.332;12.410;2023-02-15T11:19:22;6.90;;;3.60;;
55601;SDS011;59921;51.332;12.410;2023-02-15T11:21:55;5.20;;;3.30;;
55601;SDS011;59921;51.332;12.410;2023-02-15T11:24:24;3.83;;;3.30;;
55601;SDS011;59921;51.332;12.410;2023-02-15T11:29:30;5.32;;;3.17;;
55601;SDS011;59921;51.332;12.410;2023-02-15T11:32:02;5.50;;;3.45;;
55601;SDS011;59921;51.332;12.410;2023-02-15T11:34:40;4.75;;;3.38;;
55601;SDS011;59921;51.332;12.410;2023-02-15T11:37:31;4.75;;;3.20;;
55601;SDS011;59921;51.332;12.410;2023-02-15T11:40:01;5.05;;;3.15;;
55601;SDS011;59921;51.332;12.410;2023-02-15T11:42:39;4.05;;;3.10;;
55601;SDS011;59921;51.332;12.410;2023-02-15T11:45:24;4.22;;;3.20;;
55601;SDS011;59921;51.332;12.410;2023-02-15T11:47:53;5.75;;;3.00;;
55601;SDS011;59921;51.332;12.410;2023-02-15T11:50:21;5.15;;;3.38;;
55601;SDS011;59921;51.332;12.410;2023-02-15T11:52:49;6.20;;;3.15;;
55601;SDS011;59921;51.332;12.410;2023-02-15T11:55:20;4.50;;;3.10;;
55601;SDS011;59921;51.332;12.410;2023-02-15T11:58:32;4.93;;;3.22;;
55601;SDS011;59921;51.332;12.410;2023-02-15T12:00:38;3.97;;;3.20;;
55601;SDS011;59921;51.332;12.410;2023-02-15T12:03:11;4.93;;;3.40;;
55601;SDS011;59921;51.332;12.410;2023-02-15T12:05:42;4.70;;;3.30;;
55601;SDS011;59921;51.332;12.410;2023-02-15T12:08:18;4.57;;;3.20;;
55601;SDS011;59921;51.332;12.410;2023-02-15T12:11:00;4.60;;;3.28;;
55601;SDS011;59921;51.332;12.410;2023-02-15T12:13:32;5.40;;;3.40;;
55601;SDS011;59921;51.332;12.410;2023-02-15T12:15:58;4.47;;;3.08;;
55601;SDS011;59921;51.332;12.410;2023-02-15T12:18:37;4.53;;;3.10;;
55601;SDS011;59921;51.332;12.410;2023-02-15T12:21:07;4.55;;;3.25;;
55601;SDS011;59921;51.332;12.410;2023-02-15T12:23:46;4.88;;;3.42;;
55601;SDS011;59921;51.332;12.410;2023-02-15T12:26:15;3.63;;;2.90;;
55601;SDS011;59921;51.332;12.410;2023-02-15T12:28:49;4.60;;;3.17;;
55601;SDS011;59921;51.332;12.410;2023-02-15T12:31:24;4.63;;;3.30;;
55601;SDS011;59921;51.332;12.410;2023-02-15T12:34:03;4.10;;;3.00;;
55601;SDS011;59921;51.332;12.410;2023-02-15T12:36:43;5.13;;;3.17;;
55601;SDS011;59921;51.332;12.410;2023-02-15T12:41:37;4.25;;;3.17;;
55601;SDS011;59921;51.332;12.410;2023-02-15T12:44:24;3.90;;;3.03;;
55601;SDS011;59921;51.332;12.410;2023-02-15T12:49:36;4.38;;;3.22;;
55601;SDS011;59921;51.332;12.410;2023-02-15T12:54:45;3.63;;;2.88;;
55601;SDS011;59921;51.332;12.410;2023-02-15T13:02:47;3.75;;;2.83;;
55601;SDS011;59921;51.332;12.410;2023-02-15T13:05:22;3.72;;;2.70;;
55601;SDS011;59921;51.332;12.410;2023-02-15T13:07:56;5.68;;;2.95;;
55601;SDS011;59921;51.332;12.410;2023-02-15T13:10:29;3.90;;;3.00;;
55601;SDS011;59921;51.332;12.410;2023-02-15T13:12:58;4.97;;;2.90;;
55601;SDS011;59921;51.332;12.410;2023-02-15T13:15:34;5.28;;;3.20;;
55601;SDS011;59921;51.332;12.410;2023-02-15T13:20:28;4.05;;;2.75;;
55601;SDS011;59921;51.332;12.410;2023-02-15T13:23:18;3.88;;;2.90;;
55601;SDS011;59921;51.332;12.410;2023-02-15T13:25:54;3.58;;;2.53;;
55601;SDS011;59921;51.332;12.410;2023-02-15T13:28:24;3.60;;;2.63;;
55601;SDS011;59921;51.332;12.410;2023-02-15T13:30:56;4.65;;;3.00;;
55601;SDS011;59921;51.332;12.410;2023-02-15T13:33:27;3.15;;;2.45;;
55601;SDS011;59921;51.332;12.410;2023-02-15T13:38:41;3.28;;;2.60;;
55601;SDS011;59921;51.332;12.410;2023-02-15T13:41:16;3.83;;;2.63;;
55601;SDS011;59921;51.332;12.410;2023-02-15T13:43:56;3.72;;;2.40;;
55601;SDS011;59921;51.332;12.410;2023-02-15T13:52:17;4.05;;;2.72;;
55601;SDS011;59921;51.332;12.410;2023-02-15T13:54:50;4.45;;;3.10;;
55601;SDS011;59921;51.332;12.410;2023-02-15T14:03:02;4.45;;;2.60;;
55601;SDS011;59921;51.332;12.410;2023-02-15T14:09:07;4.05;;;2.53;;
55601;SDS011;59921;51.332;12.410;2023-02-15T14:19:57;3.58;;;2.30;;
55601;SDS011;59921;51.332;12.410;2023-02-15T14:22:42;4.45;;;2.60;;
55601;SDS011;59921;51.332;12.410;2023-02-15T14:28:00;3.65;;;2.60;;
55601;SDS011;59921;51.332;12.410;2023-02-15T14:30:36;3.80;;;2.50;;
55601;SDS011;59921;51.332;12.410;2023-02-15T14:33:07;3.95;;;2.28;;
55601;SDS011;59921;51.332;12.410;2023-02-15T14:35:44;4.78;;;2.60;;
55601;SDS011;59921;51.332;12.410;2023-02-15T14:38:21;3.67;;;2.28;;
55601;SDS011;59921;51.332;12.410;2023-02-15T14:43:48;4.85;;;2.67;;
55601;SDS011;59921;51.332;12.410;2023-02-15T14:49:14;4.40;;;2.55;;
55601;SDS011;59921;51.332;12.410;2023-02-15T14:54:11;3.58;;;2.20;;
55601;SDS011;59921;51.332;12.410;2023-02-15T15:05:34;4.75;;;2.63;;
55601;SDS011;59921;51.332;12.410;2023-02-15T15:08:21;3.25;;;2.30;;
55601;SDS011;59921;51.332;12.410;2023-02-15T15:10:51;3.60;;;2.20;;
55601;SDS011;59921;51.332;12.410;2023-02-15T15:18:53;2.90;;;2.10;;
55601;SDS011;59921;51.332;12.410;2023-02-15T15:33:25;3.30;;;2.20;;
55601;SDS011;59921;51.332;12.410;2023-02-15T15:41:43;4.22;;;2.00;;
55601;SDS011;59921;51.332;12.410;2023-02-15T15:44:28;3.80;;;2.17;;
55601;SDS011;59921;51.332;12.410;2023-02-15T15:49:49;3.17;;;2.10;;
55601;SDS011;59921;51.332;12.410;2023-02-15T15:52:21;3.35;;;2.10;;
55601;SDS011;59921;51.332;12.410;2023-02-15T15:54:48;2.80;;;1.90;;
55601;SDS011;59921;51.332;12.410;2023-02-15T15:57:28;3.78;;;2.10;;
55601;SDS011;59921;51.332;12.410;2023-02-15T15:59:57;3.05;;;1.92;;
55601;SDS011;59921;51.332;12.410;2023-02-15T16:02:25;2.55;;;1.95;;
55601;SDS011;59921;51.332;12.410;2023-02-15T16:04:52;2.55;;;1.95;;
55601;SDS011;59921;51.332;12.410;2023-02-15T16:10:00;2.65;;;1.85;;
55601;SDS011;59921;51.332;12.410;2023-02-15T16:12:32;3.22;;;2.05;;
55601;SDS011;59921;51.332;12.410;2023-02-15T16:15:01;3.42;;;2.08;;
55601;SDS011;59921;51.332;12.410;2023-02-15T16:17:45;2.80;;;1.90;;
55601;SDS011;59921;51.332;12.410;2023-02-15T16:20:15;3.25;;;1.85;;
55601;SDS011;59921;51.332;12.410;2023-02-15T16:22:45;3.15;;;2.05;;
55601;SDS011;59921;51.332;12.410;2023-02-15T16:27:53;3.00;;;2.08;;
55601;SDS011;59921;51.332;12.410;2023-02-15T16:30:23;3.05;;;2.00;;
55601;SDS011;59921;51.332;12.410;2023-02-15T16:32:55;2.60;;;1.73;;
55601;SDS011;59921;51.332;12.410;2023-02-15T16:35:32;2.92;;;1.90;;
55601;SDS011;59921;51.332;12.410;2023-02-15T16:37:58;3.15;;;1.88;;
55601;SDS011;59921;51.332;12.410;2023-02-15T16:42:50;2.17;;;1.60;;
55601;SDS011;59921;51.332;12.410;2023-02-15T16:45:19;3.33;;;1.70;;
55601;SDS011;59921;51.332;12.410;2023-02-15T16:47:48;2.08;;;1.65;;
55601;SDS011;59921;51.332;12.410;2023-02-15T16:50:20;2.67;;;1.80;;
55601;SDS011;59921;51.332;12.410;2023-02-15T16:52:49;2.97;;;1.70;;
55601;SDS011;59921;51.332;12.410;2023-02-15T16:55:20;2.65;;;1.80;;
55601;SDS011;59921;51.332;12.410;2023-02-15T16:57:48;4.07;;;1.70;;
55601;SDS011;59921;51.332;12.410;2023-02-15T17:00:24;2.38;;;1.80;;
55601;SDS011;59921;51.332;12.410;2023-02-15T17:02:57;2.38;;;1.73;;
55601;SDS011;59921;51.332;12.410;2023-02-15T17:05:24;3.72;;;1.80;;
55601;SDS011;59921;51.332;12.410;2023-02-15T17:08:15;2.13;;;1.60;;
55601;SDS011;59921;51.332;12.410;2023-02-15T17:13:25;2.55;;;1.90;;
55601;SDS011;59921;51.332;12.410;2023-02-15T17:18:29;1.80;;;1.50;;
55601;SDS011;59921;51.332;12.410;2023-02-15T17:21:00;3.10;;;1.80;;
55601;SDS011;59921;51.332;12.410;2023-02-15T17:23:35;2.92;;;1.70;;
55601;SDS011;59921;51.332;12.410;2023-02-15T17:26:15;3.50;;;1.77;;
55601;SDS011;59921;51.332;12.410;2023-02-15T17:29:28;2.90;;;1.85;;
55601;SDS011;59921;51.332;12.410;2023-02-15T17:31:50;2.20;;;1.80;;
55601;SDS011;59921;51.332;12.410;2023-02-15T17:37:10;2.25;;;1.75;;
55601;SDS011;59921;51.332;12.410;2023-02-15T17:39:38;3.53;;;1.80;;
55601;SDS011;59921;51.332;12.410;2023-02-15T17:42:05;2.92;;;1.75;;
55601;SDS011;59921;51.332;12.410;2023-02-15T17:44:31;2.30;;;1.73;;
55601;SDS011;59921;51.332;12.410;2023-02-15T17:46:56;3.45;;;1.90;;
55601;SDS011;59921;51.332;12.410;2023-02-15T17:49:23;3.08;;;1.90;;
55601;SDS011;59921;51.332;12.410;2023-02-15T17:51:51;3.42;;;1.77;;
55601;SDS011;59921;51.332;12.410;2023-02-15T17:54:17;3.83;;;1.98;;
55601;SDS011;59921;51.332;12.410;2023-02-15T17:57:01;3.70;;;2.10;;
55601;SDS011;59921;51.332;12.410;2023-02-15T17:59:30;3.25;;;1.95;;
55601;SDS011;59921;51.332;12.410;2023-02-15T18:01:56;2.63;;;1.73;;
55601;SDS011;59921;51.332;12.410;2023-02-15T18:07:24;2.80;;;2.00;;
55601;SDS011;59921;51.332;12.410;2023-02-15T18:10:12;3.90;;;2.00;;
55601;SDS011;59921;51.332;12.410;2023-02-15T18:12:57;3.10;;;1.95;;